createdAt,value
2022-08-17T00:00:49.720Z,72.65
2022-08-17T00:05:52.312Z,72.42
2022-08-17T00:11:23.535Z,71.99
2022-08-17T00:16:57.812Z,72.68
2022-08-17T00:22:36.868Z,72.64
2022-08-17T00:28:03.082Z,73.56
2022-08-17T00:33:34.786Z,73.6
2022-08-17T00:39:06.554Z,74.24
2022-08-17T00:44:38.234Z,74.38
2022-08-17T00:50:09.941Z,74.43
2022-08-17T00:55:41.674Z,74.91
2022-08-17T01:01:22.305Z,75.79
2022-08-17T01:06:45.080Z,76.16
2022-08-17T01:12:16.912Z,76.32
2022-08-17T01:17:48.566Z,77.29
2022-08-17T01:23:26.675Z,77.19
2022-08-17T01:28:58.409Z,77.68
2022-08-17T01:34:50.070Z,77.85
2022-08-17T01:40:01.940Z,77.92
2022-08-17T01:45:33.589Z,78.09
2022-08-17T01:51:05.285Z,78.59
2022-08-17T01:56:37.020Z,78.52
2022-08-17T02:02:08.724Z,78.97
2022-08-17T02:08:00.867Z,79.55
2022-08-17T02:13:12.261Z,80.26
2022-08-17T02:18:43.907Z,79.95
2022-08-17T02:25:02.069Z,80.39
2022-08-17T02:29:53.765Z,80.16
2022-08-17T02:35:25.481Z,80.18
2022-08-17T02:40:57.207Z,80.15
2022-08-17T02:46:28.903Z,80.09
2022-08-17T02:52:00.577Z,79.99
2022-08-17T02:57:32.369Z,79.26
2022-08-17T03:03:04.104Z,80.23
2022-08-17T03:08:35.862Z,80.45
2022-08-17T03:14:08.217Z,80.39
2022-08-17T03:19:43.279Z,80.69
2022-08-17T03:25:19.789Z,80.82
2022-08-17T03:30:47.105Z,81.59
2022-08-17T03:36:18.824Z,81.59
2022-08-17T03:41:50.557Z,81.69
2022-08-17T03:47:22.482Z,81.03
2022-08-17T03:52:54.110Z,81.23
2022-08-17T03:58:25.847Z,80.79
2022-08-17T04:03:57.482Z,81.58
2022-08-17T04:09:29.261Z,81.5
2022-08-17T04:15:00.893Z,81.02
2022-08-17T04:20:32.613Z,80.68
2022-08-17T04:26:08.722Z,81.2
2022-08-17T04:31:40.469Z,81.72
2022-08-17T04:37:12.225Z,81.46
2022-08-17T04:42:43.933Z,81.55
2022-08-17T04:48:15.581Z,81.14
2022-08-17T04:53:55.062Z,82.19
2022-08-17T04:59:19.054Z,84.19
2022-08-17T05:04:50.722Z,82.81
2022-08-17T05:10:22.539Z,81.37
2022-08-17T05:15:54.269Z,81.68
2022-08-17T05:21:25.941Z,81.47
2022-08-17T05:27:06.869Z,80.55
2022-08-17T05:32:40.432Z,81.22
2022-08-17T05:38:05.536Z,80.1
2022-08-17T05:43:37.153Z,79.02
2022-08-17T05:49:09.044Z,78.14
2022-08-17T05:54:40.614Z,78.41
2022-08-17T06:00:14.415Z,77.21
2022-08-17T06:05:44.206Z,76.29
2022-08-17T06:11:15.921Z,76.32
2022-08-17T06:16:47.534Z,75.27
2022-08-17T06:22:19.254Z,75.15
2022-08-17T06:27:57.506Z,74.83
2022-08-17T06:33:29.073Z,74.99
2022-08-17T06:39:00.830Z,74.68
2022-08-17T06:44:51.653Z,74.52
2022-08-17T06:50:04.298Z,73.84
2022-08-17T06:55:38.555Z,72.52
2022-08-17T07:01:08.024Z,72.11
2022-08-17T07:06:39.437Z,71.6
2022-08-17T07:12:11.196Z,70.57
2022-08-17T07:17:57.890Z,71.45
2022-08-17T07:23:14.556Z,70.99
2022-08-17T07:28:50.722Z,69.53
2022-08-17T07:34:22.605Z,68.82
2022-08-17T07:40:16.886Z,69.01
2022-08-17T07:45:25.886Z,68.17
2022-08-17T07:50:57.588Z,68.67
2022-08-17T07:56:35.081Z,67.99
2022-08-17T08:02:01.798Z,66.81
2022-08-17T08:07:32.759Z,65.87
2022-08-17T08:13:04.558Z,65.78
2022-08-17T08:18:57.481Z,65.95
2022-08-17T08:24:07.933Z,65.24
2022-08-17T08:29:44.049Z,65.2
2022-08-17T08:35:16.162Z,65.45
2022-08-17T08:40:47.552Z,65.68
2022-08-17T08:46:20.243Z,66.15
2022-08-17T08:51:52.235Z,66.46
2022-08-17T08:57:33.013Z,64.7
2022-08-17T09:02:55.366Z,64.84
2022-08-17T09:08:26.980Z,64.64
2022-08-17T09:13:58.779Z,64.96
2022-08-17T09:19:30.547Z,65.29
2022-08-17T09:25:02.255Z,65.27
2022-08-17T09:30:38.438Z,67.01
2022-08-17T09:36:10.102Z,68.03
2022-08-17T09:41:49.603Z,65.91
2022-08-17T09:47:13.522Z,65.06
2022-08-17T09:52:45.182Z,64.36
2022-08-17T09:58:16.947Z,63.65
2022-08-17T10:03:48.650Z,65.85
2022-08-17T10:09:20.698Z,67.48
2022-08-17T10:14:55.307Z,68.33
2022-08-17T10:20:23.829Z,68.23
2022-08-17T10:25:56.296Z,68.73
2022-08-17T10:31:36.434Z,69.79
2022-08-17T10:37:03.383Z,69.37
2022-08-17T10:42:35.070Z,69.19
2022-08-17T10:48:07.751Z,70.42
2022-08-17T10:53:40.777Z,78.49
2022-08-17T10:59:10.234Z,83.2
2022-08-17T11:04:42.048Z,88.97
2022-08-17T11:10:13.901Z,89.65
2022-08-17T11:15:45.437Z,92.88
2022-08-17T11:21:17.145Z,91.66
2022-08-17T11:26:48.955Z,92.14
2022-08-17T11:32:25.509Z,91.15
2022-08-17T11:37:56.689Z,93.47
2022-08-17T11:43:28.411Z,97.96
2022-08-17T11:49:00.205Z,96.73
2022-08-17T11:54:34.825Z,95.44
2022-08-17T12:00:03.561Z,95.48
2022-08-17T12:05:35.280Z,97.47
2022-08-17T12:11:07.013Z,98.52
2022-08-17T12:16:39.193Z,95.56
2022-08-17T12:22:10.535Z,96.79
2022-08-17T12:28:07.389Z,94.08
2022-08-17T12:33:28.743Z,93.79
2022-08-17T12:38:52.444Z,93.95
2022-08-17T12:44:23.756Z,93.62
2022-08-17T12:49:55.598Z,94.16
2022-08-17T12:55:33.888Z,96.17
2022-08-17T13:00:58.890Z,95.4
2022-08-17T13:06:30.640Z,95.96
2022-08-17T13:12:02.342Z,95.09
2022-08-17T13:17:34.161Z,93.66
2022-08-17T13:23:12.415Z,95.2
2022-08-17T13:28:37.552Z,93.81
2022-08-17T13:34:13.631Z,83.48
2022-08-17T13:39:45.482Z,84.4
2022-08-17T13:45:39.101Z,79.04
2022-08-17T13:50:48.829Z,78.73
2022-08-17T13:56:39.453Z,77.19
2022-08-17T14:01:54.625Z,77.97
2022-08-17T14:07:23.970Z,73.45
2022-08-17T14:12:55.909Z,72.75
2022-08-17T14:18:55.970Z,72.88
2022-08-17T14:23:59.147Z,69.05
2022-08-17T14:29:30.854Z,68.43
2022-08-17T14:35:06.970Z,65.76
2022-08-17T14:40:38.843Z,65.66
2022-08-17T14:46:10.442Z,64.03
2022-08-17T14:51:44.824Z,64.09
2022-08-17T14:57:34.611Z,60.74
2022-08-17T15:02:45.618Z,61.45
2022-08-17T15:08:17.317Z,61.83
2022-08-17T15:13:53.707Z,62.25
2022-08-17T15:19:20.755Z,62.67
2022-08-17T15:24:52.560Z,62.28
2022-08-17T15:30:24.218Z,64.7
2022-08-17T15:36:00.494Z,65.6
2022-08-17T15:41:32.099Z,67.05
2022-08-17T15:47:03.734Z,67.31
2022-08-17T15:52:35.506Z,68.53
2022-08-17T15:58:07.211Z,68.71
2022-08-17T16:04:07.360Z,67.74
2022-08-17T16:09:10.626Z,67.1
2022-08-17T16:14:42.350Z,66.99
2022-08-17T16:20:21.201Z,68.17
2022-08-17T16:25:54.575Z,68.97
2022-08-17T16:31:17.612Z,69.32
2022-08-17T16:36:56.619Z,70.24
2022-08-17T16:42:25.556Z,70.42
2022-08-17T16:47:57.127Z,73.51
2022-08-17T16:48:45.242Z,74.23
2022-08-17T16:54:18.138Z,74.12
2022-08-17T16:59:48.596Z,74.46
2022-08-17T17:05:20.458Z,75.29
2022-08-17T17:10:52.169Z,74.26
2022-08-17T17:16:23.866Z,73.76
2022-08-17T17:21:55.602Z,75.8
2022-08-17T17:27:27.296Z,76.7
2022-08-17T17:32:59.045Z,75.84
2022-08-17T17:38:30.818Z,75.42
2022-08-17T17:44:03.482Z,76.52
2022-08-17T17:49:38.585Z,77.65
2022-08-17T17:55:10.277Z,78.67
2022-08-17T18:00:42.671Z,79.1
2022-08-17T18:06:15.318Z,79.58
2022-08-17T18:11:51.431Z,79.25
2022-08-17T18:17:17.198Z,80.13
2022-08-17T18:22:48.997Z,80.73
2022-08-17T18:28:25.389Z,80.38
2022-08-17T18:33:53.513Z,81.43
2022-08-17T18:39:24.166Z,80.51
2022-08-17T18:44:56.171Z,80.78
2022-08-17T18:50:33.903Z,81.64
2022-08-17T18:56:05.599Z,80.34
2022-08-17T19:01:55.439Z,80.98
2022-08-17T19:07:09.089Z,80.79
2022-08-17T19:12:40.813Z,80.96
2022-08-17T19:18:15.941Z,80.51
2022-08-17T19:23:54.554Z,80.33
2022-08-17T19:29:18.900Z,81.03
2022-08-17T19:34:47.727Z,81.95
2022-08-17T19:40:52.614Z,81.63
2022-08-17T19:45:51.239Z,82.15
2022-08-17T19:51:27.276Z,82.88
2022-08-17T19:57:02.090Z,82.18
2022-08-17T20:02:30.729Z,81.68
2022-08-17T20:08:02.523Z,82.01
2022-08-17T20:13:34.426Z,82.57
2022-08-17T20:19:05.893Z,83.31
2022-08-17T20:24:37.634Z,84.1
2022-08-17T20:30:09.361Z,83.51
2022-08-17T20:35:41.091Z,84.33
2022-08-17T20:41:12.803Z,83.72
2022-08-17T20:46:44.525Z,84.96
2022-08-17T20:52:22.662Z,84.16
2022-08-17T20:57:54.339Z,85.44
2022-08-17T21:03:26.045Z,85.6
2022-08-17T21:08:57.832Z,86.44
2022-08-17T21:14:29.751Z,86.46
2022-08-17T21:20:12.277Z,86.32
2022-08-17T21:25:32.982Z,85.75
2022-08-17T21:31:07.586Z,86.09
2022-08-17T21:36:36.357Z,85.19
2022-08-17T21:42:08.130Z,84.72
2022-08-17T21:47:39.802Z,84.12
2022-08-17T21:53:33.250Z,84.62
2022-08-17T21:58:57.866Z,84.92
2022-08-17T22:04:29.772Z,84.64
2022-08-17T22:10:01.311Z,84.13
2022-08-17T22:15:39.854Z,84.71
2022-08-17T22:21:04.918Z,85.3
2022-08-17T22:26:36.502Z,84.2
2022-08-17T22:32:08.247Z,85.46
2022-08-17T22:37:39.935Z,86.35
2022-08-17T22:43:12.632Z,86.68
2022-08-17T22:48:43.955Z,86.2
2022-08-17T22:54:19.484Z,87.23
2022-08-17T22:59:51.287Z,86.52
2022-08-17T23:05:22.908Z,86.58
2022-08-17T23:10:54.684Z,84.61
2022-08-17T23:16:26.412Z,84.07
2022-08-17T23:21:58.380Z,83.96
2022-08-17T23:27:29.808Z,84.36
2022-08-17T23:33:01.520Z,84.4
2022-08-17T23:38:33.229Z,84.46
2022-08-17T23:44:04.958Z,85.2
2022-08-17T23:49:37.821Z,86.08
2022-08-17T23:55:12.792Z,86.52
